Terminal Aerodrome Forecast
Issued by NWS Louisville, KY

Home | Current Version | Previous Version | Text Only | Print | Product List | Glossary On
Versions: 1 2 3 4 5 6 7 8 9 10 11 12 13 14 15 16 17
000
FTUS43 KLMK 221700
TAFBWG
TAF
KBWG 221730Z 2218/2318 28010KT P6SM FEW030 BKN080
     FM230100 26004KT P6SM BKN050 OVC250
     FM231400 25005KT P6SM BKN040=

USA.gov is the U.S. government's official web portal to all federal, state and local government web resources and services.